Time;durP1;ratioP1;P1;durP2;ratioP2;P2;SDS_P1;SDS_P2;PMS_P1;PMS_P2;Temp;Humidity;BMP_temperature;BMP_pressure;BME280_temperature;BME280_humidity;BME280_pressure;Samples;Min_cycle;Max_cycle;Signal;HPM_P1;HPM_P2
2024/01/06 00:00:35;;;;;;;6.93;3.83;;;;;;;-1.16;100.00;100651.03;4952466;29;20262;-43
2024/01/06 00:03:00;;;;;;;5.30;3.78;;;;;;;-1.14;100.00;100651.91;4951565;28;20525;-42
2024/01/06 00:05:26;;;;;;;6.88;3.55;;;;;;;-1.14;100.00;100654.53;4951627;29;20261;-42
2024/01/06 00:07:52;;;;;;;4.60;3.63;;;;;;;-1.16;100.00;100658.03;4959328;28;20187;-41
2024/01/06 00:10:17;;;;;;;6.13;3.70;;;;;;;-1.13;100.00;100658.94;4956165;28;20544;-43
2024/01/06 00:12:43;;;;;;;3.72;3.33;;;;;;;-1.15;100.00;100665.94;4944192;28;20182;-41
2024/01/06 00:15:08;;;;;;;6.32;3.33;;;;;;;-1.09;100.00;100662.47;4952841;28;20677;-43
2024/01/06 00:17:34;;;;;;;4.78;4.03;;;;;;;-1.09;100.00;100673.00;4938092;29;20178;-43
2024/01/06 00:20:02;;;;;;;4.68;3.72;;;;;;;-1.01;100.00;100673.03;4951384;29;20179;-43
2024/01/06 00:22:28;;;;;;;4.35;3.45;;;;;;;-1.08;100.00;100688.75;4952506;29;20197;-43
2024/01/06 00:24:53;;;;;;;6.47;4.00;;;;;;;-1.05;100.00;100691.44;4956443;28;20192;-42
2024/01/06 00:27:19;;;;;;;7.95;3.63;;;;;;;-0.97;100.00;100682.69;4951199;29;20697;-44
2024/01/06 00:29:44;;;;;;;4.70;2.95;;;;;;;-0.96;100.00;100684.44;4950420;29;20215;-42
2024/01/06 00:32:10;;;;;;;3.83;3.20;;;;;;;-1.02;100.00;100685.31;4956213;28;20174;-43
2024/01/06 00:34:35;;;;;;;8.63;3.45;;;;;;;-0.99;100.00;100680.03;4957561;28;20217;-41
2024/01/06 00:37:01;;;;;;;4.95;3.10;;;;;;;-1.00;100.00;100685.31;4957313;28;20190;-42
2024/01/06 00:39:26;;;;;;;5.38;3.55;;;;;;;-1.04;100.00;100673.88;4950693;28;20195;-42
2024/01/06 00:41:52;;;;;;;5.72;3.75;;;;;;;-1.04;100.00;100689.66;4953048;29;20206;-42
2024/01/06 00:44:17;;;;;;;8.20;3.67;;;;;;;-1.04;100.00;100693.16;4954829;28;20688;-42
2024/01/06 00:46:43;;;;;;;6.78;4.35;;;;;;;-1.04;100.00;100715.97;4943813;28;20199;-42
2024/01/06 00:49:09;;;;;;;6.47;3.50;;;;;;;-1.02;100.00;100690.56;4956648;28;20175;-42
2024/01/06 00:51:34;;;;;;;4.53;3.35;;;;;;;-1.03;100.00;100691.41;4942359;29;20179;-41
2024/01/06 00:54:00;;;;;;;3.53;2.90;;;;;;;-1.01;100.00;100687.03;4958427;28;20198;-41
2024/01/06 00:56:27;;;;;;;5.72;3.20;;;;;;;-1.01;100.00;100692.31;4955101;28;20194;-42
2024/01/06 00:58:52;;;;;;;5.07;3.28;;;;;;;-0.96;100.00;100702.84;4939859;29;20190;-42
2024/01/06 01:01:18;;;;;;;4.95;3.42;;;;;;;-0.97;100.00;100685.31;4957180;28;20549;-42
2024/01/06 01:03:44;;;;;;;5.88;3.20;;;;;;;-0.93;100.00;100698.50;4954202;28;20688;-42
2024/01/06 01:06:09;;;;;;;4.95;3.20;;;;;;;-0.93;100.00;100706.38;4957040;28;20175;-41
2024/01/06 01:08:34;;;;;;;4.82;3.10;;;;;;;-0.94;100.00;100709.00;4954446;29;20752;-43
2024/01/06 01:11:00;;;;;;;8.15;3.60;;;;;;;-0.92;100.00;100700.28;4954981;28;20217;-43
2024/01/06 01:13:25;;;;;;;4.03;2.95;;;;;;;-0.93;100.00;100692.38;4954026;29;20203;-44
2024/01/06 01:15:51;;;;;;;7.40;3.40;;;;;;;-0.95;100.00;100702.88;4955050;28;20199;-43
2024/01/06 01:18:16;;;;;;;5.68;3.15;;;;;;;-0.95;100.00;100702.00;4954315;29;20548;-42
2024/01/06 01:20:42;;;;;;;4.10;3.17;;;;;;;-0.96;100.00;100706.38;4940196;29;20196;-42
2024/01/06 01:23:08;;;;;;;5.70;3.22;;;;;;;-0.97;100.00;100715.13;4962268;28;20190;-43
2024/01/06 01:25:33;;;;;;;4.75;3.25;;;;;;;-0.95;100.00;100713.38;4957157;28;20186;-42
2024/01/06 01:27:59;;;;;;;5.47;3.20;;;;;;;-0.93;100.00;100721.28;4956805;28;20538;-43
2024/01/06 01:30:25;;;;;;;8.40;3.38;;;;;;;-0.92;100.00;100710.78;4953846;28;20174;-42
2024/01/06 01:32:50;;;;;;;3.85;2.95;;;;;;;-0.92;100.00;100713.44;4952955;28;20249;-42
2024/01/06 01:35:16;;;;;;;7.03;2.95;;;;;;;-0.93;100.00;100711.66;4949936;28;20254;-42
2024/01/06 01:37:41;;;;;;;4.88;3.30;;;;;;;-0.95;100.00;100720.41;4958483;28;20195;-42
2024/01/06 01:40:07;;;;;;;4.85;3.00;;;;;;;-0.94;100.00;100717.78;4952802;28;20566;-43
2024/01/06 01:42:33;;;;;;;4.97;3.50;;;;;;;-0.95;100.00;100723.03;4947398;28;20233;-43
2024/01/06 01:44:59;;;;;;;5.13;2.92;;;;;;;-0.95;100.00;100712.50;4948786;28;20206;-42
2024/01/06 01:47:26;;;;;;;5.22;3.40;;;;;;;-0.97;100.00;100728.28;4956348;28;20234;-41
2024/01/06 01:49:54;;;;;;;5.15;2.88;;;;;;;-0.96;100.00;100723.88;4953232;28;20182;-42
2024/01/06 01:52:20;;;;;;;4.78;3.10;;;;;;;-0.96;100.00;100734.41;4958466;28;20186;-42
2024/01/06 01:54:47;;;;;;;7.15;3.40;;;;;;;-0.96;100.00;100735.31;4939941;28;20211;-43
2024/01/06 01:57:14;;;;;;;4.25;3.30;;;;;;;-0.98;100.00;100729.16;4949802;29;20179;-44
2024/01/06 01:59:40;;;;;;;5.53;3.70;;;;;;;-0.95;100.00;100746.69;4953663;28;20183;-43
2024/01/06 02:02:06;;;;;;;3.75;3.20;;;;;;;-0.97;100.00;100741.41;4950363;28;20215;-43
2024/01/06 02:04:32;;;;;;;4.78;3.20;;;;;;;-0.93;100.00;100730.06;4953455;28;20217;-41
2024/01/06 02:06:57;;;;;;;6.45;3.20;;;;;;;-0.97;100.00;100735.28;4957056;28;20533;-42
2024/01/06 02:09:26;;;;;;;8.30;3.60;;;;;;;-0.97;100.00;100743.19;4952968;28;20221;-42
2024/01/06 02:11:52;;;;;;;4.45;3.30;;;;;;;-1.00;100.00;100744.03;4953674;28;20186;-42
2024/01/06 02:14:18;;;;;;;4.63;3.40;;;;;;;-0.89;100.00;100745.00;4957522;28;20253;-42
2024/01/06 02:16:43;;;;;;;5.63;3.58;;;;;;;-0.98;100.00;100752.81;4952469;28;20206;-42
2024/01/06 02:19:11;;;;;;;5.47;2.88;;;;;;;-0.97;100.00;100741.41;4954164;28;20190;-42
2024/01/06 02:21:41;;;;;;;5.50;3.05;;;;;;;-0.96;100.00;100734.41;4949678;29;20657;-42
2024/01/06 02:24:07;;;;;;;5.10;3.30;;;;;;;-0.98;100.00;100742.31;4935478;29;20206;-44
2024/01/06 02:26:32;;;;;;;5.38;3.03;;;;;;;-0.99;100.00;100758.94;4952653;29;20209;-42
2024/01/06 02:28:58;;;;;;;5.43;3.92;;;;;;;-1.00;100.00;100756.31;4946495;29;20660;-44
2024/01/06 02:31:23;;;;;;;5.65;3.88;;;;;;;-0.98;100.00;100752.81;4944722;29;20669;-41
2024/01/06 02:33:49;;;;;;;6.22;3.92;;;;;;;-1.00;100.00;100749.31;4948400;28;20282;-42
2024/01/06 02:36:14;;;;;;;7.15;3.92;;;;;;;-0.94;100.00;100757.25;4945787;29;20184;-41
2024/01/06 02:38:40;;;;;;;4.95;3.55;;;;;;;-0.92;100.00;100760.75;4941219;29;20183;-41
2024/01/06 02:41:05;;;;;;;5.13;3.75;;;;;;;-0.96;100.00;100773.84;4945590;29;20291;-42
2024/01/06 02:43:31;;;;;;;7.13;4.00;;;;;;;-0.96;100.00;100773.84;4934196;28;20624;-42
2024/01/06 02:45:56;;;;;;;6.55;3.63;;;;;;;-0.96;100.00;100779.09;4945462;28;20657;-44
2024/01/06 02:48:22;;;;;;;6.72;3.83;;;;;;;-0.94;100.00;100790.53;4947759;28;20251;-43
2024/01/06 02:50:47;;;;;;;5.78;3.90;;;;;;;-0.93;100.00;100780.03;4934936;29;20633;-43
2024/01/06 02:53:13;;;;;;;6.47;3.95;;;;;;;-0.96;100.00;100766.88;4950571;28;20202;-42
2024/01/06 02:55:39;;;;;;;4.97;3.65;;;;;;;-0.98;100.00;100767.72;4944689;28;20178;-43
2024/01/06 02:58:04;;;;;;;7.82;3.85;;;;;;;-1.02;100.00;100785.22;4956153;28;20195;-42
2024/01/06 03:00:30;;;;;;;5.72;4.22;;;;;;;-0.99;100.00;100793.13;4950125;28;20189;-43
2024/01/06 03:02:55;;;;;;;7.90;4.05;;;;;;;-1.05;100.00;100791.34;4950091;28;20227;-42
2024/01/06 03:05:21;;;;;;;10.82;4.20;;;;;;;-1.05;100.00;100793.06;4957075;28;20581;-42
2024/01/06 03:07:46;;;;;;;8.07;4.05;;;;;;;-0.98;100.00;100784.38;4949183;29;20241;-43
2024/01/06 03:10:12;;;;;;;8.95;4.78;;;;;;;-1.06;100.00;100801.84;4947519;29;20194;-41
2024/01/06 03:12:37;;;;;;;7.00;3.75;;;;;;;-1.04;100.00;100793.09;4945018;29;20199;-42
2024/01/06 03:15:03;;;;;;;10.57;4.93;;;;;;;-1.07;100.00;100787.81;4950077;28;20641;-42
2024/01/06 03:17:29;;;;;;;7.57;4.97;;;;;;;-1.11;100.00;100796.53;4960004;28;20189;-44
2024/01/06 03:19:54;;;;;;;10.52;4.53;;;;;;;-1.11;100.00;100796.53;4950775;28;20183;-42
2024/01/06 03:22:20;;;;;;;4.95;3.95;;;;;;;-1.09;100.00;100780.78;4956621;28;20305;-42
2024/01/06 03:24:46;;;;;;;5.25;3.47;;;;;;;-1.14;100.00;100783.34;4952559;28;20256;-42
2024/01/06 03:27:12;;;;;;;7.38;4.00;;;;;;;-1.14;100.00;100795.63;4953862;28;20183;-42
2024/01/06 03:29:38;;;;;;;8.18;3.70;;;;;;;-1.13;100.00;100800.03;4947126;28;20190;-42
2024/01/06 03:32:04;;;;;;;5.00;3.67;;;;;;;-1.12;100.00;100781.59;4952737;28;20546;-43
2024/01/06 03:34:29;;;;;;;5.55;3.55;;;;;;;-1.10;100.00;100789.53;4949937;28;20221;-42
2024/01/06 03:36:54;;;;;;;12.32;3.97;;;;;;;-1.09;100.00;100791.31;4950605;28;20188;-41
2024/01/06 03:39:20;;;;;;;6.40;3.40;;;;;;;-1.05;100.00;100806.22;4945337;28;20226;-43
2024/01/06 03:41:45;;;;;;;5.30;3.97;;;;;;;-1.08;100.00;100793.03;4948258;29;20183;-42
2024/01/06 03:44:11;;;;;;;5.88;4.28;;;;;;;-1.06;100.00;100809.72;4951105;28;20286;-43
2024/01/06 03:46:37;;;;;;;6.18;3.72;;;;;;;-1.09;100.00;100797.44;4954764;28;20177;-42
2024/01/06 03:49:03;;;;;;;7.90;3.80;;;;;;;-1.05;100.00;100809.75;4951156;28;20499;-42
2024/01/06 03:51:29;;;;;;;9.68;4.95;;;;;;;-1.04;100.00;100810.63;4950885;28;20191;-43
2024/01/06 03:53:54;;;;;;;6.47;4.20;;;;;;;-1.02;100.00;100816.78;4949879;28;20202;-42
2024/01/06 03:56:20;;;;;;;7.28;4.30;;;;;;;-1.02;100.00;100826.41;4955280;28;20182;-44
2024/01/06 03:58:46;;;;;;;7.38;4.30;;;;;;;-1.02;100.00;100808.00;4961906;28;20206;-43
2024/01/06 04:01:12;;;;;;;7.20;4.25;;;;;;;-1.02;100.00;100822.03;4952097;28;20766;-42
2024/01/06 04:03:41;;;;;;;6.60;3.97;;;;;;;-1.01;100.00;100833.41;4956084;28;20250;-43
2024/01/06 04:06:07;;;;;;;6.82;4.05;;;;;;;-0.96;100.00;100827.34;4956306;28;20635;-42
2024/01/06 04:08:32;;;;;;;6.72;3.65;;;;;;;-0.93;100.00;100823.84;4937726;29;20191;-43
2024/01/06 04:10:58;;;;;;;6.10;3.85;;;;;;;-0.90;100.00;100839.66;4950612;28;20662;-42
2024/01/06 04:13:24;;;;;;;6.05;3.63;;;;;;;-0.94;100.00;100822.97;4949088;28;20574;-41
2024/01/06 04:15:50;;;;;;;8.13;4.10;;;;;;;-0.97;100.00;100833.47;4942370;29;20187;-43
2024/01/06 04:18:16;;;;;;;7.15;4.38;;;;;;;-0.98;100.00;100841.34;4956834;28;20191;-42
2024/01/06 04:20:41;;;;;;;5.20;3.83;;;;;;;-1.02;100.00;100837.81;4956827;28;20186;-42
2024/01/06 04:23:07;;;;;;;8.27;4.20;;;;;;;-1.00;100.00;100840.47;4952993;28;20601;-43
2024/01/06 04:25:32;;;;;;;4.03;3.60;;;;;;;-1.01;100.00;100847.44;4955126;28;20210;-42
2024/01/06 04:27:58;;;;;;;4.75;3.97;;;;;;;-1.02;100.00;100850.09;4940920;29;20179;-41
2024/01/06 04:30:25;;;;;;;6.50;4.70;;;;;;;-0.94;100.00;100849.28;4953947;28;20234;-42
2024/01/06 04:32:50;;;;;;;6.65;4.30;;;;;;;-1.02;100.00;100852.72;4950325;29;20194;-42
2024/01/06 04:35:16;;;;;;;6.05;4.20;;;;;;;-1.00;100.00;100850.97;4954303;28;20251;-43
2024/01/06 04:37:41;;;;;;;7.45;3.90;;;;;;;-1.03;100.00;100857.06;4951168;28;20262;-42
2024/01/06 04:40:08;;;;;;;6.80;4.10;;;;;;;-1.00;100.00;100877.28;4956366;28;20625;-43
2024/01/06 04:42:33;;;;;;;8.38;4.03;;;;;;;-1.01;100.00;100862.34;4938483;29;20213;-43
2024/01/06 04:44:59;;;;;;;6.07;3.97;;;;;;;-0.96;100.00;100866.78;4954127;28;20199;-42
2024/01/06 04:47:25;;;;;;;5.90;3.55;;;;;;;-0.99;100.00;100868.50;4945805;28;20191;-42
2024/01/06 04:49:50;;;;;;;4.82;3.78;;;;;;;-0.96;100.00;100881.66;4959992;28;20228;-44
2024/01/06 04:52:16;;;;;;;4.80;3.83;;;;;;;-0.97;100.00;100880.78;4957666;28;20540;-41
2024/01/06 04:54:41;;;;;;;5.60;2.85;;;;;;;-0.93;100.00;100873.81;4954628;28;20301;-42
2024/01/06 04:57:07;;;;;;;4.15;3.13;;;;;;;-0.90;100.00;100874.72;4952400;29;20182;-42
2024/01/06 04:59:32;;;;;;;6.75;3.40;;;;;;;-0.88;100.00;100891.41;4965393;28;20660;-42
2024/01/06 05:01:58;;;;;;;6.78;2.80;;;;;;;-0.92;100.00;100876.47;4953772;29;20182;-42
2024/01/06 05:04:24;;;;;;;6.13;2.97;;;;;;;-0.89;100.00;100896.66;4954682;28;20210;-42
2024/01/06 05:06:51;;;;;;;5.88;3.28;;;;;;;-0.88;100.00;100886.13;4954603;28;20186;-42
2024/01/06 05:09:17;;;;;;;7.20;3.35;;;;;;;-0.90;100.00;100902.78;4961084;28;20657;-42
2024/01/06 05:11:46;;;;;;;7.78;3.42;;;;;;;-0.94;100.00;100888.72;4938002;29;20269;-41
2024/01/06 05:14:11;;;;;;;7.25;3.38;;;;;;;-0.94;100.00;100891.34;4953620;28;20214;-42
2024/01/06 05:16:37;;;;;;;6.88;3.22;;;;;;;-0.95;100.00;100896.59;4953743;29;20179;-43
2024/01/06 05:19:02;;;;;;;3.05;2.40;;;;;;;-0.97;100.00;100904.47;4951101;28;20633;-41
2024/01/06 05:21:29;;;;;;;6.32;2.53;;;;;;;-0.99;100.00;100916.72;4953215;28;20186;-43
2024/01/06 05:23:54;;;;;;;4.90;2.13;;;;;;;-1.02;100.00;100916.69;4952013;28;20245;-42
2024/01/06 05:26:20;;;;;;;7.45;2.70;;;;;;;-1.03;100.00;100928.06;4954036;29;20237;-44
2024/01/06 05:28:45;;;;;;;5.00;2.65;;;;;;;-1.04;100.00;100924.56;4951226;28;20179;-43
2024/01/06 05:31:11;;;;;;;7.90;2.70;;;;;;;-0.99;100.00;100950.91;4952804;29;20218;-43
2024/01/06 05:33:37;;;;;;;8.10;2.60;;;;;;;-1.05;100.00;100937.69;4956310;28;20724;-42
2024/01/06 05:36:02;;;;;;;6.28;2.65;;;;;;;-1.07;100.00;100927.16;4954505;28;20222;-45
2024/01/06 05:38:28;;;;;;;3.30;2.42;;;;;;;-1.02;100.00;100936.84;4954249;28;20178;-42
2024/01/06 05:40:53;;;;;;;5.22;2.63;;;;;;;-1.04;100.00;100936.81;4948236;28;20193;-42
2024/01/06 05:43:19;;;;;;;3.47;2.35;;;;;;;-0.96;100.00;100955.31;4953915;28;20635;-43
2024/01/06 05:45:45;;;;;;;5.93;2.30;;;;;;;-0.99;100.00;100960.53;4952506;29;20762;-44
2024/01/06 05:48:11;;;;;;;3.38;2.30;;;;;;;-0.93;100.00;100963.25;4954148;28;20249;-42
2024/01/06 05:50:40;;;;;;;5.25;2.35;;;;;;;-0.84;100.00;100948.44;4956127;28;20266;-42
2024/01/06 05:53:06;;;;;;;3.88;2.25;;;;;;;-0.91;100.00;100965.00;4950183;28;20205;-41
2024/01/06 05:55:32;;;;;;;4.05;1.80;;;;;;;-0.94;100.00;100959.75;4948823;28;20178;-40
2024/01/06 05:57:57;;;;;;;5.32;2.33;;;;;;;-0.90;100.00;100979.91;4957286;28;20602;-43
2024/01/06 06:00:23;;;;;;;2.83;2.15;;;;;;;-0.92;100.00;100978.13;4952890;28;20264;-41
2024/01/06 06:02:49;;;;;;;4.18;2.30;;;;;;;-0.87;100.00;100979.97;4951729;28;20198;-42
2024/01/06 06:05:14;;;;;;;3.78;1.83;;;;;;;-0.88;100.00;100988.72;4960792;28;20698;-43
2024/01/06 06:07:40;;;;;;;4.75;1.73;;;;;;;-0.92;100.00;100984.31;4957285;28;20188;-42
2024/01/06 06:10:07;;;;;;;5.72;2.17;;;;;;;-0.92;100.00;100991.28;4954488;28;20190;-42
2024/01/06 06:12:33;;;;;;;4.63;2.00;;;;;;;-0.90;100.00;101000.09;4950705;29;20185;-42
2024/01/06 06:14:59;;;;;;;5.25;2.03;;;;;;;-0.92;100.00;101001.81;4955012;28;20218;-43
2024/01/06 06:17:25;;;;;;;3.05;1.42;;;;;;;-0.84;100.00;100998.41;4951998;28;20187;-42
2024/01/06 06:19:51;;;;;;;2.17;1.52;;;;;;;-0.82;100.00;101022.09;4929038;29;20194;-42
2024/01/06 06:22:16;;;;;;;3.13;1.80;;;;;;;-0.81;100.00;101002.81;4948431;29;20589;-44
2024/01/06 06:24:42;;;;;;;2.72;1.50;;;;;;;-0.85;100.00;101008.94;4944223;29;20218;-40
2024/01/06 06:27:08;;;;;;;5.32;1.65;;;;;;;-0.83;100.00;101015.09;4946298;28;20216;-41
2024/01/06 06:29:34;;;;;;;3.03;1.50;;;;;;;-0.82;100.00;101021.22;4947094;29;20677;-42
2024/01/06 06:32:00;;;;;;;2.97;1.65;;;;;;;-0.82;100.00;101011.59;4949240;28;20187;-42
2024/01/06 06:34:25;;;;;;;5.82;1.35;;;;;;;-0.81;100.00;101037.00;4950966;28;20607;-40
2024/01/06 06:36:51;;;;;;;2.58;1.30;;;;;;;-0.79;100.00;101027.38;4953330;28;20535;-41
2024/01/06 06:39:18;;;;;;;3.42;1.42;;;;;;;-0.74;100.00;101019.56;4953805;28;20649;-42
2024/01/06 06:41:44;;;;;;;3.88;1.42;;;;;;;-0.78;100.00;101025.66;4957360;28;20186;-41
2024/01/06 06:44:10;;;;;;;3.70;1.50;;;;;;;-0.77;100.00;101035.31;4950310;28;20222;-42
2024/01/06 06:46:36;;;;;;;4.60;1.60;;;;;;;-0.79;100.00;101037.91;4953282;28;20553;-41
2024/01/06 06:49:02;;;;;;;1.38;1.23;;;;;;;-0.75;100.00;101033.56;4947603;29;20199;-43
2024/01/06 06:51:29;;;;;;;3.00;1.30;;;;;;;-0.72;100.00;101042.41;4946445;28;20182;-41
2024/01/06 06:53:55;;;;;;;3.28;1.42;;;;;;;-0.73;100.00;101042.38;4939426;29;20207;-44
2024/01/06 06:56:20;;;;;;;4.43;1.52;;;;;;;-0.66;100.00;101041.56;4932736;28;20193;-44
2024/01/06 06:58:46;;;;;;;4.57;1.27;;;;;;;-0.65;100.00;101052.13;4946989;29;20917;-42
2024/01/06 07:01:14;;;;;;;1.85;1.30;;;;;;;-0.67;100.00;101063.50;4951225;28;20290;-44
2024/01/06 07:03:40;;;;;;;4.28;1.85;;;;;;;-0.61;100.00;101063.56;4951407;28;20214;-46
2024/01/06 07:06:06;;;;;;;5.15;1.40;;;;;;;-0.67;100.00;101058.22;4948479;28;20189;-45
2024/01/06 07:08:31;;;;;;;7.18;1.92;;;;;;;-0.66;100.00;101068.78;4950546;28;20190;-44
2024/01/06 07:10:56;;;;;;;5.35;1.73;;;;;;;-0.59;100.00;101058.28;4949752;29;20182;-41
2024/01/06 07:13:22;;;;;;;2.25;1.25;;;;;;;-0.55;100.00;101068.88;4941104;28;20647;-45
2024/01/06 07:15:48;;;;;;;4.20;1.35;;;;;;;-0.63;100.00;101076.69;4946212;29;20187;-46
2024/01/06 07:18:13;;;;;;;4.05;1.15;;;;;;;-0.62;100.00;101074.94;4947043;28;20572;-44
2024/01/06 07:20:39;;;;;;;4.63;1.58;;;;;;;-0.60;100.00;101073.22;4949999;28;20214;-44
2024/01/06 07:23:04;;;;;;;4.18;1.02;;;;;;;-0.63;100.00;101076.69;4946496;28;20210;-43
2024/01/06 07:25:30;;;;;;;3.67;1.10;;;;;;;-0.60;100.00;101090.75;4931619;28;20672;-43
2024/01/06 07:27:56;;;;;;;7.13;1.60;;;;;;;-0.65;100.00;101086.31;4945540;29;20194;-43
2024/01/06 07:30:21;;;;;;;2.80;1.10;;;;;;;-0.64;100.00;101077.53;4950793;28;20552;-46
2024/01/06 07:32:49;;;;;;;3.47;1.10;;;;;;;-0.61;100.00;101087.25;4936894;29;20206;-43
2024/01/06 07:35:16;;;;;;;5.20;1.63;;;;;;;-0.66;100.00;101091.56;4949851;28;20218;-43
2024/01/06 07:37:41;;;;;;;2.22;1.10;;;;;;;-0.61;100.00;101095.16;4949548;28;20572;-44
2024/01/06 07:40:07;;;;;;;5.43;1.45;;;;;;;-0.57;100.00;101096.03;4946143;28;20549;-41
2024/01/06 07:42:32;;;;;;;3.92;1.27;;;;;;;-0.68;100.00;101102.09;4952047;28;20289;-45
2024/01/06 07:44:58;;;;;;;4.70;1.30;;;;;;;-0.64;100.00;101095.09;4949736;28;20213;-46
2024/01/06 07:47:24;;;;;;;2.88;1.40;;;;;;;-0.69;100.00;101109.94;4947602;28;20193;-43
2024/01/06 07:49:50;;;;;;;2.05;1.20;;;;;;;-0.67;100.00;101105.59;4943573;29;20182;-43
2024/01/06 07:52:15;;;;;;;3.63;1.45;;;;;;;-0.67;100.00;101108.22;4946848;28;20643;-45
2024/01/06 07:54:41;;;;;;;6.28;2.22;;;;;;;-0.66;100.00;101129.31;4952094;28;20246;-45
2024/01/06 07:57:07;;;;;;;2.42;1.30;;;;;;;-0.66;100.00;101107.34;4949084;28;20221;-43
2024/01/06 07:59:32;;;;;;;2.25;1.10;;;;;;;-0.67;100.00;101137.16;4947393;29;20199;-44
2024/01/06 08:01:58;;;;;;;3.58;1.17;;;;;;;-0.62;100.00;101114.41;4946253;28;20219;-44
2024/01/06 08:04:23;;;;;;;2.40;1.17;;;;;;;-0.63;100.00;101107.41;4945428;29;20207;-46
2024/01/06 08:06:49;;;;;;;1.33;1.00;;;;;;;-0.56;100.00;101135.53;4931757;29;20684;-45
2024/01/06 08:09:14;;;;;;;2.72;1.23;;;;;;;-0.58;100.00;101120.59;4940342;29;20227;-44
2024/01/06 08:11:42;;;;;;;3.15;1.20;;;;;;;-0.56;100.00;101125.03;4935659;29;20257;-46
2024/01/06 08:14:08;;;;;;;3.30;1.23;;;;;;;-0.58;100.00;101139.03;4932661;29;20215;-42
2024/01/06 08:16:33;;;;;;;1.85;1.00;;;;;;;-0.54;100.00;101125.91;4948941;28;20190;-42
2024/01/06 08:18:59;;;;;;;4.03;1.10;;;;;;;-0.54;100.00;101128.56;4954349;28;20270;-45
2024/01/06 08:21:25;;;;;;;2.35;1.00;;;;;;;-0.51;100.00;101140.84;4928566;29;20247;-44
2024/01/06 08:23:50;;;;;;;1.58;1.00;;;;;;;-0.47;100.00;101146.19;4946552;28;20210;-44
2024/01/06 08:26:16;;;;;;;1.88;1.10;;;;;;;-0.46;100.00;101169.00;4948658;28;20187;-44
2024/01/06 08:28:41;;;;;;;4.93;0.93;;;;;;;-0.44;100.00;101154.13;4950681;28;20716;-45
2024/01/06 08:31:07;;;;;;;1.02;0.85;;;;;;;-0.46;100.00;101144.41;4950243;28;20178;-42
2024/01/06 08:33:32;;;;;;;3.15;0.90;;;;;;;-0.46;100.00;101165.47;4948578;28;20203;-42
2024/01/06 08:35:58;;;;;;;5.68;1.35;;;;;;;-0.46;100.00;101157.56;4952446;28;20182;-43
2024/01/06 08:38:23;;;;;;;3.58;1.17;;;;;;;-0.48;100.00;101173.38;4951011;28;20191;-43
2024/01/06 08:40:50;;;;;;;3.15;1.25;;;;;;;-0.48;100.00;101175.09;4931812;29;20273;-44
2024/01/06 08:43:16;;;;;;;6.32;1.30;;;;;;;-0.43;100.00;101174.31;4954385;28;20242;-43
2024/01/06 08:45:41;;;;;;;3.20;1.00;;;;;;;-0.45;100.00;101175.16;4952488;28;20197;-43
2024/01/06 08:48:07;;;;;;;2.85;0.98;;;;;;;-0.44;100.00;101176.91;4952681;29;20186;-43
2024/01/06 08:50:33;;;;;;;1.42;0.98;;;;;;;-0.38;100.00;101191.91;4950907;28;20570;-44
2024/01/06 08:52:58;;;;;;;3.20;1.02;;;;;;;-0.38;100.00;101190.16;4953432;28;20867;-43
2024/01/06 08:55:24;;;;;;;3.78;1.40;;;;;;;-0.37;100.00;101183.13;4950282;28;20829;-45
2024/01/06 08:57:50;;;;;;;1.05;0.73;;;;;;;-0.37;100.00;101196.28;4937497;29;20190;-43
2024/01/06 09:00:17;;;;;;;2.08;1.00;;;;;;;-0.36;100.00;101196.31;4946855;29;20248;-43
2024/01/06 09:02:42;;;;;;;1.17;1.05;;;;;;;-0.35;100.00;101203.38;4954723;28;20202;-45
2024/01/06 09:05:08;;;;;;;3.20;1.35;;;;;;;-0.33;100.00;101208.63;4947241;28;20230;-45
2024/01/06 09:07:33;;;;;;;2.60;1.40;;;;;;;-0.32;100.00;101207.78;4951961;28;20190;-42
2024/01/06 09:10:00;;;;;;;2.53;1.20;;;;;;;-0.33;100.00;101222.72;4938439;29;20175;-42
2024/01/06 09:12:25;;;;;;;4.22;1.25;;;;;;;-0.27;100.00;101208.72;4949180;28;20182;-41
2024/01/06 09:14:51;;;;;;;1.27;1.13;;;;;;;-0.27;100.00;101219.25;4943778;28;20211;-41
2024/01/06 09:17:17;;;;;;;13.50;6.55;;;;;;;-0.24;100.00;101229.81;4949884;28;20261;-45
2024/01/06 09:19:42;;;;;;;4.38;1.35;;;;;;;-0.28;100.00;101222.75;4950474;28;20193;-42
2024/01/06 09:22:07;;;;;;;5.63;2.88;;;;;;;-0.27;100.00;101229.78;4950996;29;20249;-45
2024/01/06 09:24:33;;;;;;;1.48;1.33;;;;;;;-0.29;100.00;101224.47;4949316;28;20210;-44
2024/01/06 09:26:59;;;;;;;2.97;1.00;;;;;;;-0.29;100.00;101235.00;4952408;28;20273;-43
2024/01/06 09:29:24;;;;;;;4.68;1.33;;;;;;;-0.26;100.00;101240.34;4947885;28;20182;-43
2024/01/06 09:31:50;;;;;;;3.22;1.20;;;;;;;-0.26;100.00;101260.53;4943981;28;20639;-44
2024/01/06 09:34:16;;;;;;;9.68;2.45;;;;;;;-0.34;100.00;101247.25;4948866;28;20686;-46
2024/01/06 09:36:41;;;;;;;4.40;1.85;;;;;;;-0.34;100.00;101260.41;4941943;29;20561;-45
2024/01/06 09:39:08;;;;;;;4.15;1.45;;;;;;;-0.33;100.00;101262.19;4953981;28;20268;-44
2024/01/06 09:41:33;;;;;;;4.60;2.05;;;;;;;-0.33;100.00;101274.44;4950296;28;20179;-44
2024/01/06 09:43:59;;;;;;;4.22;2.67;;;;;;;-0.31;100.00;101263.06;4947902;28;20592;-42
2024/01/06 09:46:31;;;;;;;6.45;2.38;;;;;;;-0.35;100.00;101274.44;4949252;28;20198;-43
2024/01/06 09:48:58;;;;;;;6.55;1.95;;;;;;;-0.37;100.00;101280.53;4946610;28;20205;-44
2024/01/06 09:51:26;;;;;;;4.20;1.38;;;;;;;-0.34;100.00;101278.84;4949048;28;20732;-44
2024/01/06 09:54:03;;;;;;;6.38;3.10;;;;;;;-0.30;100.00;101279.78;4947838;29;20516;-41
2024/01/06 09:56:30;;;;;;;4.32;1.45;;;;;;;-0.34;100.00;101301.66;4949217;28;20269;-43
2024/01/06 09:58:56;;;;;;;1.42;1.30;;;;;;;-0.31;100.00;101296.41;4950873;29;20214;-44
2024/01/06 10:01:21;;;;;;;3.30;1.08;;;;;;;-0.35;100.00;101302.50;4951037;28;20278;-44
2024/01/06 10:03:47;;;;;;;1.98;1.10;;;;;;;-0.39;100.00;101300.69;4947743;28;20337;-46
2024/01/06 10:06:14;;;;;;;4.80;1.67;;;;;;;-0.32;100.00;101307.81;4950110;28;20818;-47
2024/01/06 10:08:43;;;;;;;4.53;1.40;;;;;;;-0.39;100.00;101295.41;4929549;28;20280;-45
2024/01/06 10:11:09;;;;;;;1.88;1.35;;;;;;;-0.44;100.00;101304.16;4954682;28;20190;-42
2024/01/06 10:13:35;;;;;;;3.75;0.90;;;;;;;-0.40;100.00;101318.22;4953078;28;20565;-45
2024/01/06 10:16:01;;;;;;;3.60;1.45;;;;;;;-0.37;100.00;101312.13;4951631;28;20190;-42
2024/01/06 10:18:29;;;;;;;6.07;1.48;;;;;;;-0.39;100.00;101309.50;4950089;28;20194;-43
2024/01/06 10:20:55;;;;;;;4.05;1.05;;;;;;;-0.44;100.00;101298.91;4947036;29;20194;-42
2024/01/06 10:23:26;;;;;;;5.95;1.50;;;;;;;-0.32;100.00;101308.72;4949601;28;20215;-44
2024/01/06 10:25:55;;;;;;;3.78;1.25;;;;;;;-0.38;100.00;101302.47;4947510;28;20201;-47
2024/01/06 10:28:25;;;;;;;4.35;1.13;;;;;;;-0.34;100.00;101306.91;4948986;28;20549;-44
2024/01/06 10:30:53;;;;;;;1.63;1.20;;;;;;;-0.35;100.00;101302.50;4915299;28;20510;-45
2024/01/06 10:33:20;;;;;;;3.28;0.98;;;;;;;-0.35;100.00;101316.56;4946810;28;20203;-44
2024/01/06 10:35:46;;;;;;;2.53;1.60;;;;;;;-0.37;100.00;101314.75;4953268;28;20308;-44
2024/01/06 10:38:12;;;;;;;1.33;1.10;;;;;;;-0.40;100.00;101331.41;4944240;29;20196;-44
2024/01/06 10:40:37;;;;;;;3.97;1.60;;;;;;;-0.37;100.00;101314.75;4954224;28;20193;-44
2024/01/06 10:43:04;;;;;;;5.07;1.38;;;;;;;-0.41;100.00;101342.81;4945831;28;20211;-45
2024/01/06 10:45:30;;;;;;;3.03;1.70;;;;;;;-0.42;100.00;101326.13;4945319;28;20206;-42
2024/01/06 10:47:56;;;;;;;5.18;1.50;;;;;;;-0.39;100.00;101330.56;4950774;28;20198;-44
2024/01/06 10:50:23;;;;;;;3.90;1.42;;;;;;;-0.39;100.00;101333.19;4944241;29;20666;-44
2024/01/06 10:52:49;;;;;;;1.98;1.50;;;;;;;-0.44;100.00;101334.84;4946804;28;20589;-44
2024/01/06 10:55:20;;;;;;;6.10;1.55;;;;;;;-0.42;100.00;101341.00;4947668;29;20217;-42
2024/01/06 10:57:46;;;;;;;6.00;1.50;;;;;;;-0.40;100.00;101344.56;4956363;28;20186;-42
2024/01/06 11:00:12;;;;;;;7.28;1.45;;;;;;;-0.45;100.00;101331.34;4955341;28;20287;-42
2024/01/06 11:02:39;;;;;;;4.70;1.60;;;;;;;-0.44;100.00;101327.84;4946826;28;20681;-41
2024/01/06 11:05:10;;;;;;;1.85;1.30;;;;;;;-0.40;100.00;101348.94;4963534;28;20591;-42
2024/01/06 11:07:36;;;;;;;4.43;1.48;;;;;;;-0.39;100.00;101346.34;4933936;29;20191;-42
2024/01/06 11:10:15;;;;;;;4.50;1.67;;;;;;;-0.36;100.00;101341.13;4949604;28;20182;-44